Airfield :
LOGIN :

Register | Disclaimer

   EN    FR    IT 

 










Legend :    VFR   Marginal VFR   IFR   Intensive IFR   Very Intensive IFR
Visi :
Ceiling :
>= 8 km
>= 3000ft
5 to 8 km
1000 to 3000 ft
1500m to 5 km
500 to 1000 ft
800 to 1500m
200 to 500 ft
< 800m
< 200 ft
Symbols :   Thunderstorms  Fog  Heavy snow  Heavy precipitations  Wind > 20 kt
SIGMETs :     Misc.  Thunderstorms  Icing  Turbulence  Mountain Waves  Volcanic Ashes







- Airport Elevation : 2302 ft
- Download approach charts


LEAB - Albacete

CURRENT METAR :
  • 262100Z 14008KT CAVOK 18/14 Q1022 NOSIG

EXPIRED METARs :
  • 262000Z 13009KT 9999 FEW031 19/14 Q1022 NOSIG
  • 261900Z 11010KT CAVOK 20/13 Q1021 NOSIG

TAF TAF LEAB
Valid from the 26 at 21:00 until the 27 at 06:00 UTC


262000Z 2621/2706 13008KT 9999 SCT025
TEMPO 2622/2706 BKN012
PROB40
TEMPO 2700/2706 2000 BCFG BKN008
No reported NOTAMs for that airfield.



MET'MAP, your aeronautical weather chart ! - Copyright ORBIFLY December 2007 - Disclaimer

ORBIFLY MET'MAP TEAM :

Programming & Development : Alexandra Zaïnal
Concept & Development : Baudouin d'Aumeries
Co-Development & Prog : Marc-Olivier Méhu
Technical & hardware support : Manuel Goepfert

Contact : metmap@orbifly.com




SOURCES & CREDITS :

   NOAA